Chapel Hill, TN

4:26 PM CDT on May 27, 2015 (GMT -0500)
Smyrna | | Change Station
CLOSE
Current Station
Airport
Location: Smyrna,
Elevation: 545 ft
Nearby Weather Stations
Active Advisory: Special Statement Active Notice: Public Information Statement

Elev 545 ft 36.01 °N, 86.52 °W | Updated 30 minutes ago

Partly Cloudy
Partly Cloudy
69 °F
Feels Like 69 °F
N
0
Wind Variable Wind from North

Today
High -- | Low -- °F
--% Chance of Precip.
Yesterday
High -- | Low -- °F
Precip. -- in
5:34 AM 7:53 PM
Waxing Gibbous, 70% visible
Pressure 30.20 in
Visibility 10.0 miles
Clouds Few 4700 ft
Dew Point 67 °F
Humidity 93%
Rainfall 0.22 in
Snow Depth Not available.
UV 6 out of 12
Pollen 6.90 out of 12
Air Quality Not available.
Flu Activity Sporadic
METAR KMQY 272056Z 00000KT 10SM FEW047 21/19 A3018 RMK AO2 50005 60022 T02050194 TSE31RAE52 P0007 SLP227

More Conditions Fewer Conditions

Pressure 30.20 in
Visibility 10.0 miles
Clouds Few 4700 ft
Dew Point 67 °F
Humidity 93%
Rainfall 0.22 in
Snow Depth Not available.
UV 6 out of 12
Pollen 6.90 out of 12
Air Quality Not available.
Flu Activity Sporadic
METAR KMQY 272056Z 00000KT 10SM FEW047 21/19 A3018 RMK AO2 50005 60022 T02050194 TSE31RAE52 P0007 SLP227

More Conditions Fewer Conditions

10-Day Weather Forecast

Almanac

Astronomy

May. 27, 2015 Rise Set
Actual Time
Civil Twilight
Nautical Twilight
Astronomical Twilight
Moon
Length of Visible Light
Length of Day
Tomorrow will be .
, % of the Moon is Illuminated

Today's Extremes

State Highs State Lows

Community

WunderPhotos

Upload Photos

1,824,799 photos uploaded!

WunderBlogs® & News

Nearby

Air Quality

  Air Quality AQ Index Pollutant
Not available.

Snow Depth

Station Depth Elevation

Earthquake Activity

City Distance Mag. Time & Date
Minimum magnitude displayed is 2.5.

Coastal Water Temperatures

Place Temperature

Stations

Nearby Weather Stations

Station Location Temp. Windchill Dew Point Humidity Wind Precip. Elev Updated Type
                   
Special Statement
Statement as of 4:13 PM CDT on May 27, 2015

... Significant weather advisory for Marshall... Maury and Williamson
counties...

At 408 PM CDT... National Weather Service meteorologists were tracking
a strong thunderstorm near Columbia... moving east at 15 to 20 mph.

Some locations in the path include Columbia... Spring Hill and I-65
east of Columbia.

Heavy downpours can be expected with this storm... which may cause
ponding of water in low lying areas. In addition... brief wind gusts
of 30 to 40 mph... are possible... which could break some limbs from
trees. Small hail is also possible.


Lat... Lon 3576 8683 3557 8682 3559 8721 3572 8722

19